Time;durP1;ratioP1;P1;durP2;ratioP2;P2;SDS_P1;SDS_P2;PMS_P1;PMS_P2;Temp;Humidity;BMP_temperature;BMP_pressure;BME280_temperature;BME280_humidity;BME280_pressure;Samples;Min_cycle;Max_cycle;Signal;HPM_P1;HPM_P2
2021/12/30 00:00:16;;;;;;;42.78;10.10;;;;;;;10.34;100.00;101074.09;5302193;28;20123;-86
2021/12/30 00:02:47;;;;;;;55.13;10.38;;;;;;;10.28;100.00;101077.28;5300542;28;20056;-86
2021/12/30 00:05:19;;;;;;;57.10;11.27;;;;;;;10.29;100.00;101079.81;5305501;28;20044;-85
2021/12/30 00:07:51;;;;;;;44.08;10.25;;;;;;;10.26;100.00;101080.09;5300180;28;20094;-85
2021/12/30 00:10:22;;;;;;;50.97;10.40;;;;;;;10.34;100.00;101082.97;5301003;28;20097;-85
2021/12/30 00:12:54;;;;;;;52.22;13.27;;;;;;;10.37;100.00;101082.66;5304687;28;20029;-84
2021/12/30 00:15:27;;;;;;;61.13;14.65;;;;;;;10.43;100.00;101081.31;5289383;28;20108;-85
2021/12/30 00:17:58;;;;;;;49.67;12.73;;;;;;;10.42;100.00;101079.59;5292642;28;20024;-85
2021/12/30 00:20:30;;;;;;;51.58;12.75;;;;;;;10.43;100.00;101081.31;5304032;28;20037;-85
2021/12/30 00:23:04;;;;;;;50.97;13.10;;;;;;;10.44;100.00;101085.66;5309697;27;20021;-85
2021/12/30 00:25:41;;;;;;;48.63;11.25;;;;;;;10.42;100.00;101089.44;5293505;28;20138;-85
2021/12/30 00:28:16;;;;;;;49.17;13.18;;;;;;;10.47;100.00;101087.22;5292331;28;20025;-85
2021/12/30 00:30:50;;;;;;;50.05;13.05;;;;;;;10.51;100.00;101086.78;5295430;28;20473;-85
2021/12/30 00:33:22;;;;;;;48.08;12.68;;;;;;;10.53;100.00;101086.66;5299472;28;20029;-85
2021/12/30 00:35:54;;;;;;;53.00;13.65;;;;;;;10.51;100.00;101083.28;5296837;28;20021;-85
2021/12/30 00:38:25;;;;;;;52.55;12.40;;;;;;;10.58;100.00;101087.09;5284191;28;20044;-84
2021/12/30 00:40:57;;;;;;;45.70;11.40;;;;;;;10.63;100.00;101090.19;5295157;28;20462;-85
2021/12/30 00:43:29;;;;;;;50.03;11.77;;;;;;;10.68;100.00;101097.78;5293954;28;20027;-85
2021/12/30 00:46:00;;;;;;;46.72;11.65;;;;;;;10.65;100.00;101093.56;5299851;28;20024;-85
2021/12/30 00:48:31;;;;;;;52.55;11.40;;;;;;;10.72;100.00;101108.03;5297227;28;20029;-85
2021/12/30 00:51:04;;;;;;;50.90;11.75;;;;;;;10.76;100.00;101106.81;5293593;28;20025;-85
2021/12/30 00:53:35;;;;;;;46.15;9.85;;;;;;;10.75;100.00;101107.78;5295337;28;20040;-85
2021/12/30 00:56:07;;;;;;;45.63;10.48;;;;;;;10.77;100.00;101111.16;5291900;28;20528;-86
2021/12/30 00:58:38;;;;;;;45.72;9.98;;;;;;;10.82;100.00;101117.88;5293707;28;20021;-86
2021/12/30 01:01:09;;;;;;;42.08;10.25;;;;;;;10.86;100.00;101105.97;5320062;28;20032;-85
2021/12/30 01:03:40;;;;;;;45.55;10.40;;;;;;;10.87;100.00;101116.50;5291016;28;20033;-85
2021/12/30 01:06:12;;;;;;;48.60;9.48;;;;;;;10.90;100.00;101108.22;5289154;28;20033;-85
2021/12/30 01:08:44;;;;;;;53.15;10.13;;;;;;;10.89;100.00;101106.53;5292680;28;20020;-85
2021/12/30 01:11:15;;;;;;;43.15;9.50;;;;;;;10.89;100.00;101103.03;5295362;28;20032;-85
2021/12/30 01:13:51;;;;;;;54.15;10.40;;;;;;;10.94;100.00;101098.13;5290488;27;20029;-85
2021/12/30 01:16:24;;;;;;;52.13;9.37;;;;;;;10.97;100.00;101111.16;5284633;28;20052;-85
2021/12/30 01:19:04;;;;;;;46.90;9.48;;;;;;;11.00;100.00;101115.41;5293609;28;20020;-84
2021/12/30 01:21:35;;;;;;;43.08;8.32;;;;;;;11.00;100.00;101112.75;5308155;28;20027;-84
2021/12/30 01:24:06;;;;;;;48.53;10.38;;;;;;;11.06;100.00;101118.38;5311176;28;20028;-85
2021/12/30 01:26:38;;;;;;;48.50;9.15;;;;;;;11.10;100.00;101129.63;5304445;28;20021;-86
2021/12/30 01:29:09;;;;;;;48.65;10.70;;;;;;;11.14;100.00;101113.16;5303483;28;20025;-85
2021/12/30 01:31:41;;;;;;;39.28;9.98;;;;;;;11.13;100.00;101114.16;5297634;28;20024;-85
2021/12/30 01:34:12;;;;;;;41.33;10.10;;;;;;;11.18;100.00;101121.72;5296658;28;20158;-86
2021/12/30 01:36:43;;;;;;;40.83;9.35;;;;;;;11.21;100.00;101105.44;5290300;28;20077;-86
2021/12/30 01:39:17;;;;;;;44.60;9.95;;;;;;;11.28;100.00;101119.91;5291685;28;20052;-86
2021/12/30 01:41:50;;;;;;;43.05;12.13;;;;;;;11.35;100.00;101133.56;5290940;28;20054;-85
2021/12/30 01:44:22;;;;;;;41.63;11.07;;;;;;;11.38;100.00;101119.94;5291653;28;20357;-86
2021/12/30 01:46:54;;;;;;;40.22;9.98;;;;;;;11.43;100.00;101112.34;5297508;28;20021;-86
2021/12/30 01:49:28;;;;;;;38.25;10.30;;;;;;;11.44;100.00;101115.84;5288213;28;20037;-85
2021/12/30 01:52:00;;;;;;;47.13;12.13;;;;;;;11.45;100.00;101120.22;5295438;28;20478;-86
2021/12/30 01:54:31;;;;;;;38.67;10.75;;;;;;;11.45;100.00;101109.53;5297401;28;20040;-86
2021/12/30 01:57:05;;;;;;;39.25;11.10;;;;;;;11.49;100.00;101119.75;5287991;28;20029;-86
2021/12/30 01:59:36;;;;;;;43.53;11.38;;;;;;;11.53;100.00;101117.66;5290251;28;20021;-86
2021/12/30 02:02:07;;;;;;;41.78;10.95;;;;;;;11.54;100.00;101106.84;5299177;28;20040;-85
2021/12/30 02:04:39;;;;;;;40.08;12.10;;;;;;;11.56;100.00;101112.03;5291134;28;20049;-86
2021/12/30 02:07:10;;;;;;;45.75;11.70;;;;;;;11.53;100.00;101107.84;5294406;28;20389;-86
2021/12/30 02:09:41;;;;;;;38.85;11.75;;;;;;;11.59;100.00;101113.56;5296484;28;20027;-86
2021/12/30 02:12:13;;;;;;;36.20;10.80;;;;;;;11.61;100.00;101111.63;5294631;28;20044;-86
2021/12/30 02:14:44;;;;;;;38.22;10.30;;;;;;;11.60;100.00;101115.25;5297824;28;20055;-86
2021/12/30 02:17:15;;;;;;;42.85;12.05;;;;;;;11.64;100.00;101120.19;5299163;28;20477;-85
2021/12/30 02:19:47;;;;;;;42.17;11.85;;;;;;;11.65;100.00;101110.34;5290644;28;20064;-85
2021/12/30 02:22:18;;;;;;;40.63;11.82;;;;;;;11.65;100.00;101121.03;5300837;28;20021;-86
2021/12/30 02:24:50;;;;;;;45.45;11.60;;;;;;;11.67;100.00;101119.88;5296069;28;20082;-86
2021/12/30 02:27:21;;;;;;;32.97;10.77;;;;;;;11.67;100.00;101114.53;5300557;28;20033;-86
2021/12/30 02:29:53;;;;;;;41.72;11.82;;;;;;;11.70;100.00;101114.25;5297517;28;20105;-85
2021/12/30 02:32:25;;;;;;;40.60;11.13;;;;;;;11.71;100.00;101113.28;5296495;28;20108;-86
2021/12/30 02:34:56;;;;;;;36.90;11.00;;;;;;;11.72;100.00;101111.44;5292295;28;20397;-85
2021/12/30 02:37:28;;;;;;;40.33;11.85;;;;;;;11.70;100.00;101119.59;5292728;28;20033;-86
2021/12/30 02:39:59;;;;;;;36.00;10.57;;;;;;;11.73;100.00;101116.66;5289897;28;20025;-86
2021/12/30 02:42:30;;;;;;;34.28;11.27;;;;;;;11.77;100.00;101121.72;5293080;28;20452;-86
2021/12/30 02:45:02;;;;;;;31.83;10.40;;;;;;;11.79;100.00;101119.75;5295597;28;20112;-85
2021/12/30 02:47:34;;;;;;;26.65;9.73;;;;;;;11.77;100.00;101113.69;5293841;28;20033;-86
2021/12/30 02:50:06;;;;;;;36.97;11.52;;;;;;;11.78;100.00;101116.22;5298742;28;20020;-86
2021/12/30 02:52:37;;;;;;;34.80;10.20;;;;;;;11.78;100.00;101120.72;5288718;28;20105;-86
2021/12/30 02:55:10;;;;;;;36.58;11.75;;;;;;;11.82;100.00;101128.31;5297397;28;20489;-86
2021/12/30 02:57:41;;;;;;;33.03;10.60;;;;;;;11.78;100.00;101126.94;5303495;28;20032;-85
2021/12/30 03:00:13;;;;;;;30.23;11.63;;;;;;;11.79;100.00;101133.09;5305642;28;20362;-86
2021/12/30 03:02:44;;;;;;;25.10;11.43;;;;;;;11.79;100.00;101133.09;5296933;28;20025;-86
2021/12/30 03:05:18;;;;;;;29.67;10.95;;;;;;;11.78;100.00;101128.72;5295795;28;20062;-86
2021/12/30 03:07:51;;;;;;;27.67;10.57;;;;;;;11.79;100.00;101135.78;5286688;28;20029;-86
2021/12/30 03:10:25;;;;;;;26.13;10.98;;;;;;;11.76;100.00;101131.53;5297710;28;20036;-86
2021/12/30 03:13:03;;;;;;;26.35;11.70;;;;;;;11.76;100.00;101139.56;5327281;28;20032;-85
2021/12/30 03:15:35;;;;;;;24.67;11.25;;;;;;;11.76;100.00;101142.22;5315896;28;20083;-86
2021/12/30 03:18:07;;;;;;;26.90;10.63;;;;;;;11.75;100.00;101137.06;5312439;28;20109;-86
2021/12/30 03:20:39;;;;;;;29.08;11.60;;;;;;;11.76;100.00;101136.88;5310007;28;20489;-86
2021/12/30 03:23:11;;;;;;;21.25;11.43;;;;;;;11.78;100.00;101142.09;5302320;28;20021;-86
2021/12/30 03:25:42;;;;;;;22.10;11.40;;;;;;;11.76;100.00;101147.56;5304707;28;20124;-86
2021/12/30 03:28:14;;;;;;;28.38;11.88;;;;;;;11.78;100.00;101150.13;5294120;28;20025;-86
2021/12/30 03:30:45;;;;;;;22.52;11.80;;;;;;;11.76;100.00;101144.06;5297669;28;20103;-86
2021/12/30 03:33:20;;;;;;;22.35;10.70;;;;;;;11.80;100.00;101140.97;5298722;28;20037;-86
2021/12/30 03:35:51;;;;;;;23.02;10.73;;;;;;;11.81;100.00;101136.47;5297568;28;20355;-86
2021/12/30 03:38:23;;;;;;;20.92;9.85;;;;;;;11.78;100.00;101134.94;5291389;28;20032;-85
2021/12/30 03:40:55;;;;;;;17.52;9.73;;;;;;;11.85;100.00;101138.72;5289282;28;20493;-86
2021/12/30 03:43:27;;;;;;;16.52;8.98;;;;;;;11.84;100.00;101138.88;5294284;28;20483;-86
2021/12/30 03:45:59;;;;;;;17.75;8.60;;;;;;;11.87;100.00;101143.94;5290583;28;20044;-85
2021/12/30 03:48:35;;;;;;;14.30;8.70;;;;;;;11.91;100.00;101146.19;5297393;28;20029;-86
2021/12/30 03:51:10;;;;;;;18.05;8.57;;;;;;;11.96;100.00;101140.41;5290672;28;20021;-86
2021/12/30 03:53:42;;;;;;;15.65;9.38;;;;;;;11.98;100.00;101142.94;5288443;28;20457;-86
2021/12/30 03:56:14;;;;;;;18.55;9.15;;;;;;;12.00;100.00;101144.47;5293528;27;20482;-86
2021/12/30 03:58:46;;;;;;;16.05;9.68;;;;;;;12.04;100.00;101142.34;5290570;27;20043;-85
2021/12/30 04:01:20;;;;;;;20.90;10.07;;;;;;;12.05;100.00;101141.38;5295024;28;20032;-86
2021/12/30 04:03:53;;;;;;;22.38;10.38;;;;;;;12.12;100.00;101150.50;5291346;28;20041;-85
2021/12/30 04:06:26;;;;;;;20.75;12.05;;;;;;;12.15;100.00;101141.34;5292513;28;20029;-86
2021/12/30 04:08:58;;;;;;;21.23;12.77;;;;;;;12.18;100.00;101146.41;5287146;28;20032;-85
2021/12/30 04:11:33;;;;;;;21.52;12.30;;;;;;;12.21;100.00;101138.94;5296925;28;20395;-85
2021/12/30 04:14:05;;;;;;;25.35;13.68;;;;;;;12.23;100.00;101144.97;5295276;28;20107;-85
2021/12/30 04:16:36;;;;;;;24.73;14.68;;;;;;;12.22;100.00;101145.97;5296298;28;20062;-85
2021/12/30 04:19:07;;;;;;;28.58;15.85;;;;;;;12.27;100.00;101157.09;5293074;28;20033;-86
2021/12/30 04:21:39;;;;;;;28.05;15.20;;;;;;;12.32;100.00;101161.13;5297020;28;20056;-85
2021/12/30 04:24:11;;;;;;;30.42;15.60;;;;;;;12.29;100.00;101159.63;5325816;28;20023;-85
2021/12/30 04:26:42;;;;;;;29.70;16.50;;;;;;;12.34;100.00;101160.03;5302236;28;20028;-86
2021/12/30 04:29:13;;;;;;;32.63;19.85;;;;;;;12.35;100.00;101155.50;5305791;28;20025;-86
2021/12/30 04:31:45;;;;;;;29.95;19.70;;;;;;;12.39;100.00;101171.09;5294897;28;23280;-86
2021/12/30 04:34:17;;;;;;;28.85;19.77;;;;;;;12.39;100.00;101162.25;5294750;28;20037;-86
2021/12/30 04:36:48;;;;;;;28.23;19.73;;;;;;;12.42;100.00;101165.47;5297361;28;20029;-86
2021/12/30 04:39:20;;;;;;;32.42;20.83;;;;;;;12.41;100.00;101166.47;5292946;28;20016;-86
2021/12/30 04:41:51;;;;;;;29.48;19.42;;;;;;;12.42;100.00;101161.94;5299494;28;20032;-86
2021/12/30 04:44:22;;;;;;;30.38;20.58;;;;;;;12.47;100.00;101157.00;5287900;28;20055;-85
2021/12/30 04:46:55;;;;;;;30.40;20.95;;;;;;;12.43;100.00;101164.50;5293955;28;20082;-85
2021/12/30 04:49:27;;;;;;;32.75;23.70;;;;;;;12.48;100.00;101166.69;5289726;28;20055;-85
2021/12/30 04:51:59;;;;;;;29.83;23.40;;;;;;;12.63;100.00;101183.13;5290169;28;20055;-86
2021/12/30 04:54:31;;;;;;;27.38;23.40;;;;;;;12.53;100.00;101163.59;5288433;28;20048;-86
2021/12/30 04:57:02;;;;;;;27.27;24.40;;;;;;;12.58;100.00;101169.34;5289878;28;20028;-85
2021/12/30 04:59:33;;;;;;;31.02;23.77;;;;;;;12.56;100.00;101171.34;5299288;28;20040;-86
2021/12/30 05:02:05;;;;;;;31.48;22.98;;;;;;;12.57;100.00;101173.00;5294689;28;20021;-86
2021/12/30 05:04:36;;;;;;;28.58;23.83;;;;;;;12.53;100.00;101167.09;5296127;28;20087;-85
2021/12/30 05:07:08;;;;;;;27.73;23.77;;;;;;;12.61;100.00;101182.44;5295125;28;20131;-86
2021/12/30 05:09:39;;;;;;;28.20;24.05;;;;;;;12.62;100.00;101184.97;5297000;28;20378;-86
2021/12/30 05:12:11;;;;;;;26.45;23.52;;;;;;;12.59;100.00;101179.06;5292771;28;20078;-86
2021/12/30 05:14:42;;;;;;;26.67;22.60;;;;;;;12.60;100.00;101178.06;5290646;28;36134;-86
2021/12/30 05:17:13;;;;;;;27.02;21.90;;;;;;;12.61;100.00;101183.28;5297970;28;20122;-86
2021/12/30 05:19:45;;;;;;;23.40;20.63;;;;;;;12.64;100.00;101185.66;5296657;28;20020;-85
2021/12/30 05:22:16;;;;;;;21.23;18.92;;;;;;;12.71;100.00;101204.66;5295629;28;20469;-85
2021/12/30 05:24:47;;;;;;;18.58;16.67;;;;;;;12.72;100.00;101197.47;5299484;28;20033;-86
2021/12/30 05:27:19;;;;;;;18.02;16.13;;;;;;;12.75;100.00;101203.34;5285205;28;20188;-86
2021/12/30 05:29:51;;;;;;;16.35;14.73;;;;;;;12.77;100.00;101189.84;5293531;28;20410;-86
2021/12/30 05:32:22;;;;;;;14.88;13.43;;;;;;;12.75;100.00;101206.03;5292254;28;20090;-85
2021/12/30 05:34:53;;;;;;;14.50;13.10;;;;;;;12.81;100.00;101223.34;5299766;28;20114;-86
2021/12/30 05:37:25;;;;;;;14.15;12.95;;;;;;;12.85;100.00;101212.19;5293314;28;20036;-86
2021/12/30 05:39:56;;;;;;;14.63;13.25;;;;;;;12.82;100.00;101220.50;5285228;28;20513;-85
2021/12/30 05:42:27;;;;;;;12.93;11.50;;;;;;;12.88;100.00;101224.44;5293539;28;20044;-86
2021/12/30 05:44:59;;;;;;;13.88;12.77;;;;;;;12.91;100.00;101231.34;5290781;28;20032;-86
2021/12/30 05:47:30;;;;;;;13.38;12.25;;;;;;;12.86;100.00;101229.09;5293138;28;20028;-85
2021/12/30 05:50:04;;;;;;;12.70;11.70;;;;;;;12.88;100.00;101229.78;5291174;28;20059;-86
2021/12/30 05:52:37;;;;;;;11.80;10.90;;;;;;;12.94;100.00;101239.03;5295939;28;20040;-86
2021/12/30 05:55:08;;;;;;;10.77;9.77;;;;;;;12.96;100.00;101237.94;5291023;28;20021;-85
2021/12/30 05:57:41;;;;;;;12.27;11.23;;;;;;;12.91;100.00;101234.84;5294357;28;20090;-86
2021/12/30 06:00:15;;;;;;;14.15;12.77;;;;;;;12.93;100.00;101245.41;5294592;28;20025;-86
2021/12/30 06:02:46;;;;;;;14.52;13.30;;;;;;;12.91;100.00;101237.53;5284783;28;20540;-86
2021/12/30 06:05:18;;;;;;;16.35;14.85;;;;;;;12.95;100.00;101227.34;5309562;28;20025;-85
2021/12/30 06:07:49;;;;;;;16.63;15.13;;;;;;;13.02;100.00;101225.78;5312035;28;20040;-84
2021/12/30 06:10:21;;;;;;;16.73;15.13;;;;;;;12.95;100.00;101222.00;5314397;28;20039;-86
2021/12/30 06:12:52;;;;;;;15.35;13.93;;;;;;;13.00;100.00;101231.28;5306555;28;20021;-86
2021/12/30 06:15:23;;;;;;;18.70;16.92;;;;;;;12.91;100.00;101216.09;5305119;28;20546;-86
2021/12/30 06:17:55;;;;;;;16.95;15.25;;;;;;;12.93;100.00;101224.00;5295094;28;20025;-85
2021/12/30 06:20:28;;;;;;;18.50;16.83;;;;;;;12.96;100.00;101240.59;5294877;28;20418;-86
2021/12/30 06:22:59;;;;;;;15.88;14.57;;;;;;;12.97;100.00;101236.94;5295385;28;20029;-86
2021/12/30 06:25:30;;;;;;;14.63;13.18;;;;;;;12.95;100.00;101235.38;5292974;28;20083;-86
2021/12/30 06:28:02;;;;;;;13.52;12.43;;;;;;;12.96;100.00;101229.06;5296724;28;20027;-86
2021/12/30 06:30:34;;;;;;;13.73;12.38;;;;;;;13.00;100.00;101238.47;5291588;28;20056;-86
2021/12/30 06:33:05;;;;;;;12.50;11.40;;;;;;;13.02;100.00;101240.00;5295831;28;20031;-86
2021/12/30 06:35:36;;;;;;;11.02;10.13;;;;;;;13.02;100.00;101225.78;5287086;28;20029;-86
2021/12/30 06:38:08;;;;;;;11.13;10.13;;;;;;;13.01;100.00;101226.78;5294115;28;20100;-86
2021/12/30 06:40:39;;;;;;;10.55;9.60;;;;;;;12.97;100.00;101236.06;5288348;28;20171;-86
2021/12/30 06:43:12;;;;;;;10.63;9.73;;;;;;;13.00;100.00;101236.63;5294977;28;20111;-85
2021/12/30 06:45:46;;;;;;;13.57;10.65;;;;;;;12.99;100.00;101253.69;5293523;28;20028;-86
2021/12/30 06:48:17;;;;;;;9.82;9.13;;;;;;;13.08;100.00;101261.81;5295726;28;20033;-85
2021/12/30 06:50:52;;;;;;;11.00;10.07;;;;;;;13.07;100.00;101252.13;5286386;28;20084;-86
2021/12/30 06:53:25;;;;;;;10.00;9.02;;;;;;;13.02;100.00;101252.53;5289521;28;20619;-86
2021/12/30 06:55:57;;;;;;;9.90;9.00;;;;;;;13.02;100.00;101239.16;5298324;28;20092;-86
2021/12/30 06:58:29;;;;;;;10.23;9.23;;;;;;;13.04;100.00;101261.28;5300806;28;20032;-86
2021/12/30 07:01:00;;;;;;;8.98;8.25;;;;;;;13.03;100.00;101262.28;5301522;28;20401;-86
2021/12/30 07:03:31;;;;;;;8.30;7.60;;;;;;;13.03;100.00;101271.16;5302519;28;20099;-85
2021/12/30 07:06:03;;;;;;;8.52;7.57;;;;;;;12.96;100.00;101277.25;5298308;28;20078;-86
2021/12/30 07:08:34;;;;;;;7.10;6.38;;;;;;;13.03;100.00;101270.31;5304543;28;20035;-86
2021/12/30 07:11:06;;;;;;;9.13;7.95;;;;;;;12.99;100.00;101283.16;5302202;28;20028;-86
2021/12/30 07:13:37;;;;;;;8.82;8.02;;;;;;;13.00;100.00;101282.16;5327697;27;20025;-86
2021/12/30 07:16:08;;;;;;;9.85;8.85;;;;;;;12.97;100.00;101279.78;5300503;28;20060;-86
2021/12/30 07:18:40;;;;;;;12.02;10.73;;;;;;;12.99;100.00;101279.63;5302574;28;20021;-86
2021/12/30 07:21:11;;;;;;;11.77;10.55;;;;;;;13.04;100.00;101296.09;5302294;28;20067;-86
2021/12/30 07:23:43;;;;;;;12.63;11.32;;;;;;;13.02;100.00;101287.34;5301400;28;20103;-86
2021/12/30 07:26:14;;;;;;;12.98;11.70;;;;;;;13.02;100.00;101301.56;5301624;28;20025;-86
2021/12/30 07:28:47;;;;;;;13.55;12.20;;;;;;;12.95;100.00;101299.66;5293574;28;20025;-86
2021/12/30 07:31:19;;;;;;;14.27;12.95;;;;;;;13.05;100.00;101309.31;5292721;28;20123;-85
2021/12/30 07:33:50;;;;;;;13.95;12.65;;;;;;;13.01;100.00;101315.16;5290690;28;20211;-85
2021/12/30 07:36:22;;;;;;;13.75;12.35;;;;;;;13.00;100.00;101302.72;5294124;28;20028;-86
2021/12/30 07:38:53;;;;;;;12.15;10.95;;;;;;;13.01;100.00;101307.09;5293263;28;20100;-86
2021/12/30 07:41:28;;;;;;;11.40;10.20;;;;;;;13.03;100.00;101313.16;5285791;28;38435;-86
2021/12/30 07:43:59;;;;;;;11.45;9.52;;;;;;;13.11;100.00;101323.97;5298977;28;20017;-86
2021/12/30 07:46:31;;;;;;;9.00;8.20;;;;;;;13.08;100.00;101318.91;5315844;27;20389;-86
2021/12/30 07:49:02;;;;;;;9.48;8.57;;;;;;;13.10;100.00;101319.59;5318279;28;20082;-86
2021/12/30 07:51:33;;;;;;;9.45;8.65;;;;;;;13.15;100.00;101313.81;5293743;28;20119;-86
2021/12/30 07:54:05;;;;;;;10.00;9.10;;;;;;;13.06;100.00;101328.94;5291181;28;20029;-85
2021/12/30 07:56:36;;;;;;;10.48;9.52;;;;;;;13.06;100.00;101326.25;5289909;28;20075;-86
2021/12/30 07:59:08;;;;;;;8.98;8.18;;;;;;;13.04;100.00;101331.75;5291155;28;20040;-86
2021/12/30 08:01:39;;;;;;;9.35;8.32;;;;;;;13.10;100.00;101313.41;5299866;28;20032;-85
2021/12/30 08:04:10;;;;;;;8.95;7.78;;;;;;;13.10;100.00;101324.13;5299615;28;43564;-86
2021/12/30 08:06:41;;;;;;;8.88;7.50;;;;;;;12.96;100.00;101306.72;5290449;28;20055;-85
2021/12/30 08:09:13;;;;;;;9.13;7.47;;;;;;;12.95;100.00;101311.19;5299437;28;20074;-86
2021/12/30 08:11:44;;;;;;;6.95;6.25;;;;;;;12.97;100.00;101309.25;5301097;28;20036;-86
2021/12/30 08:14:15;;;;;;;6.43;5.82;;;;;;;12.91;100.00;101325.88;5305755;28;20016;-86
2021/12/30 08:16:46;;;;;;;7.47;5.55;;;;;;;12.94;100.00;101325.59;5306577;28;20017;-86
2021/12/30 08:19:19;;;;;;;6.53;5.47;;;;;;;12.92;100.00;101337.41;5304276;28;20103;-86
2021/12/30 08:21:51;;;;;;;5.13;4.55;;;;;;;13.00;100.00;101350.94;5307222;28;20067;-85
2021/12/30 08:24:22;;;;;;;4.53;3.72;;;;;;;13.00;100.00;101348.25;5307420;28;20052;-85
2021/12/30 08:26:53;;;;;;;5.30;4.72;;;;;;;12.99;100.00;101351.91;5307380;28;20531;-85
2021/12/30 08:29:26;;;;;;;7.88;4.10;;;;;;;13.08;100.00;101343.03;5313035;28;20056;-85
2021/12/30 08:31:58;;;;;;;5.38;3.47;;;;;;;13.10;100.00;101338.34;5330352;27;20071;-85
2021/12/30 08:34:29;;;;;;;5.53;3.42;;;;;;;13.10;100.00;101335.69;5300206;28;20446;-85
2021/12/30 08:37:00;;;;;;;5.55;3.67;;;;;;;13.12;100.00;101340.88;5304081;28;20063;-85
2021/12/30 08:39:35;;;;;;;4.95;3.63;;;;;;;13.23;100.00;101351.41;5304588;28;20075;-85
2021/12/30 08:42:22;;;;;;;4.90;3.58;;;;;;;13.25;100.00;101341.38;5302309;28;20192;-85
2021/12/30 08:44:56;;;;;;;5.55;4.53;;;;;;;13.22;100.00;101360.44;5302526;28;20430;-85
2021/12/30 08:47:30;;;;;;;5.43;3.95;;;;;;;13.23;100.00;101356.75;5302965;28;20028;-84
2021/12/30 08:50:04;;;;;;;5.07;4.05;;;;;;;13.23;100.00;101348.72;5303814;28;20071;-84
2021/12/30 08:52:36;;;;;;;4.25;3.85;;;;;;;13.28;100.00;101364.38;5303533;28;20504;-84
2021/12/30 08:55:09;;;;;;;6.68;4.32;;;;;;;13.22;100.00;101377.34;5304125;28;20025;-84
2021/12/30 08:57:41;;;;;;;6.22;4.88;;;;;;;13.29;100.00;101384.78;5301158;28;20475;-84
2021/12/30 09:00:20;;;;;;;4.97;4.43;;;;;;;13.35;100.00;101400.31;5306431;28;20477;-84
2021/12/30 09:02:55;;;;;;;6.85;5.13;;;;;;;13.44;100.00;101399.44;5311073;28;20020;-83
2021/12/30 09:05:26;;;;;;;6.85;4.88;;;;;;;13.46;100.00;101384.03;5320912;28;20070;-84
2021/12/30 09:07:58;;;;;;;6.53;5.18;;;;;;;13.57;100.00;101391.91;5307054;28;20096;-83
2021/12/30 09:10:34;;;;;;;5.72;5.00;;;;;;;13.51;100.00;101379.09;5308401;28;20090;-83
2021/12/30 09:13:08;;;;;;;;;;;;;;;13.70;100.00;101388.03;5301891;28;20039;-84
2021/12/30 09:15:40;;;;;;;5.93;4.30;;;;;;;13.63;100.00;101371.69;5297625;28;20450;-84
2021/12/30 09:18:13;;;;;;;7.60;5.00;;;;;;;13.75;100.00;101377.72;5300458;28;20025;-84
2021/12/30 09:20:44;;;;;;;6.85;4.80;;;;;;;13.91;100.00;101379.72;5298309;28;20059;-84
2021/12/30 09:23:16;;;;;;;8.45;4.43;;;;;;;13.94;100.00;101393.69;5299709;28;20021;-84
2021/12/30 09:25:47;;;;;;;8.43;4.20;;;;;;;13.99;100.00;101390.56;5328208;27;20025;-85
2021/12/30 09:28:19;;;;;;;10.35;4.78;;;;;;;14.05;100.00;101381.88;5325386;27;20191;-83
2021/12/30 09:30:51;;;;;;;6.38;4.13;;;;;;;14.13;100.00;101394.53;5291964;28;20136;-84
2021/12/30 09:33:23;;;;;;;8.02;3.55;;;;;;;14.26;100.00;101392.31;5285008;28;20493;-83
2021/12/30 09:35:55;;;;;;;6.68;3.50;;;;;;;14.35;100.00;101420.06;5296818;28;20017;-84
2021/12/30 09:38:26;;;;;;;6.70;3.33;;;;;;;14.37;100.00;101399.28;5291072;28;20029;-84
2021/12/30 09:40:58;;;;;;;9.88;3.30;;;;;;;14.44;100.00;101419.13;5295528;28;20095;-84
2021/12/30 09:43:29;;;;;;;7.53;3.50;;;;;;;14.41;100.00;101414.09;5316659;27;20135;-84
2021/12/30 09:46:00;;;;;;;11.90;3.28;;;;;;;14.43;100.00;101425.53;5299622;28;20032;-83
2021/12/30 09:48:32;;;;;;;11.18;3.97;;;;;;;14.42;100.00;101425.66;5299115;28;20481;-84
2021/12/30 09:51:07;;;;;;;8.48;3.20;;;;;;;14.51;100.00;101436.31;5299357;28;20312;-83
2021/12/30 09:53:38;;;;;;;10.27;3.65;;;;;;;14.40;100.00;101416.94;5303850;28;20036;-83
2021/12/30 09:56:10;;;;;;;8.35;3.13;;;;;;;14.47;100.00;101418.00;5335541;27;20402;-84
2021/12/30 09:58:41;;;;;;;13.45;3.35;;;;;;;14.39;100.00;101416.06;5311567;28;20063;-84
2021/12/30 10:01:13;;;;;;;8.65;3.72;;;;;;;14.36;100.00;101419.91;5314012;28;20028;-84
2021/12/30 10:03:46;;;;;;;8.45;3.63;;;;;;;14.39;100.00;101416.06;5305408;27;20116;-84
2021/12/30 10:06:17;;;;;;;11.40;4.05;;;;;;;14.27;100.00;101407.44;5305739;28;20643;-84
2021/12/30 10:08:58;;;;;;;10.98;4.03;;;;;;;14.30;100.00;101411.63;5311580;27;20024;-84
2021/12/30 10:11:29;;;;;;;11.52;3.67;;;;;;;14.24;100.00;101420.31;5304341;28;20074;-84
2021/12/30 10:14:00;;;;;;;11.30;3.17;;;;;;;14.34;100.00;101416.56;5305851;28;20489;-85
2021/12/30 10:16:32;;;;;;;9.77;3.70;;;;;;;14.33;100.00;101420.22;5314057;28;20107;-84
2021/12/30 10:19:05;;;;;;;10.02;3.60;;;;;;;14.38;100.00;101411.72;5315443;28;20025;-85
2021/12/30 10:21:42;;;;;;;9.77;3.78;;;;;;;14.46;100.00;101419.84;5300763;28;20021;-85
2021/12/30 10:24:14;;;;;;;9.32;3.05;;;;;;;14.49;100.00;101442.84;5301571;28;20077;-85
2021/12/30 10:26:57;;;;;;;12.00;4.05;;;;;;;14.47;100.00;101413.47;5296359;28;20067;-85
2021/12/30 10:29:42;;;;;;;13.13;4.05;;;;;;;14.41;100.00;101432.03;5298590;28;20051;-85
2021/12/30 10:32:21;;;;;;;8.90;3.28;;;;;;;14.40;100.00;101422.31;5291745;28;20428;-86
2021/12/30 10:35:08;;;;;;;9.80;3.50;;;;;;;14.34;100.00;101423.72;5297105;28;20029;-85
2021/12/30 10:38:00;;;;;;;9.13;3.50;;;;;;;14.43;100.00;101428.22;5310040;28;20032;-85
2021/12/30 10:40:32;;;;;;;12.18;3.92;;;;;;;14.47;100.00;101421.53;5313909;28;20024;-84
2021/12/30 10:43:29;;;;;;;12.48;4.32;;;;;;;14.52;100.00;101424.59;5320411;28;20075;-83
2021/12/30 10:46:13;;;;;;;10.70;3.92;;;;;;;14.58;100.00;101431.22;5317261;28;20028;-85
2021/12/30 10:48:56;;;;;;;15.48;3.63;;;;;;;14.68;100.00;101413.19;5309327;28;20040;-85
2021/12/30 10:51:40;;;;;;;11.90;3.97;;;;;;;14.79;100.00;101435.41;5314974;28;20091;-84
2021/12/30 10:54:14;;;;;;;8.25;3.00;;;;;;;14.82;100.00;101430.56;5302298;28;20166;-84
2021/12/30 10:56:54;;;;;;;9.50;3.67;;;;;;;14.80;100.00;101413.78;5309266;28;20077;-84
2021/12/30 10:59:28;;;;;;;11.15;3.70;;;;;;;14.71;100.00;101431.66;5303621;28;20037;-84
2021/12/30 11:02:09;;;;;;;13.35;3.83;;;;;;;14.70;100.00;101411.19;5302874;28;20486;-86
2021/12/30 11:04:43;;;;;;;11.73;3.00;;;;;;;14.67;100.00;101424.06;5306054;28;20572;-85
2021/12/30 11:07:17;;;;;;;16.45;4.03;;;;;;;14.59;100.00;101419.50;5302208;28;20376;-85
2021/12/30 11:09:54;;;;;;;11.07;3.50;;;;;;;14.61;100.00;101419.34;5305867;28;20024;-84
2021/12/30 11:12:32;;;;;;;14.82;4.65;;;;;;;14.63;100.00;101420.03;5327542;27;20024;-85
2021/12/30 11:15:18;;;;;;;11.77;4.32;;;;;;;14.80;100.00;101426.38;5303244;27;20103;-86
2021/12/30 11:17:50;;;;;;;15.60;3.45;;;;;;;14.75;100.00;101419.59;5285287;28;20017;-85
2021/12/30 11:20:23;;;;;;;11.75;3.33;;;;;;;15.02;100.00;101428.53;5287319;28;20048;-86
2021/12/30 11:22:54;;;;;;;7.70;2.80;;;;;;;15.13;100.00;101417.53;5297503;28;20040;-84
2021/12/30 11:25:26;;;;;;;12.82;3.38;;;;;;;15.20;100.00;101424.94;5308084;27;20470;-85
2021/12/30 11:27:58;;;;;;;11.43;3.40;;;;;;;15.09;100.00;101413.50;5306667;28;20024;-85
2021/12/30 11:30:30;;;;;;;13.63;3.63;;;;;;;15.27;100.00;101417.94;5305213;28;20425;-85